sensor_id;sensor_type;location;lat;lon;timestamp;P1;durP1;ratioP1;P2;durP2;ratioP2
44862;SDS011;30597;49.628;10.850;2023-01-05T00:01:01;3.57;;;3.20;;
44862;SDS011;30597;49.628;10.850;2023-01-05T00:03:30;3.53;;;3.23;;
44862;SDS011;30597;49.628;10.850;2023-01-05T00:06:00;3.67;;;3.17;;
44862;SDS011;30597;49.628;10.850;2023-01-05T00:08:30;3.37;;;3.07;;
44862;SDS011;30597;49.628;10.850;2023-01-05T00:10:56;3.40;;;3.10;;
44862;SDS011;30597;49.628;10.850;2023-01-05T00:13:40;2.93;;;2.73;;
44862;SDS011;30597;49.628;10.850;2023-01-05T00:16:24;3.40;;;2.70;;
44862;SDS011;30597;49.628;10.850;2023-01-05T00:19:09;2.90;;;2.70;;
44862;SDS011;30597;49.628;10.850;2023-01-05T00:21:54;5.43;;;3.20;;
44862;SDS011;30597;49.628;10.850;2023-01-05T00:24:39;11.20;;;3.30;;
44862;SDS011;30597;49.628;10.850;2023-01-05T00:27:05;3.30;;;2.80;;
44862;SDS011;30597;49.628;10.850;2023-01-05T00:29:30;3.40;;;3.00;;
44862;SDS011;30597;49.628;10.850;2023-01-05T00:31:56;2.80;;;2.60;;
44862;SDS011;30597;49.628;10.850;2023-01-05T00:34:21;2.70;;;2.40;;
44862;SDS011;30597;49.628;10.850;2023-01-05T00:36:47;3.10;;;2.80;;
44862;SDS011;30597;49.628;10.850;2023-01-05T00:39:12;3.10;;;2.80;;
44862;SDS011;30597;49.628;10.850;2023-01-05T00:41:38;3.93;;;3.10;;
44862;SDS011;30597;49.628;10.850;2023-01-05T00:44:03;2.37;;;2.17;;
44862;SDS011;30597;49.628;10.850;2023-01-05T00:46:29;2.93;;;2.63;;
44862;SDS011;30597;49.628;10.850;2023-01-05T00:48:54;3.50;;;2.80;;
44862;SDS011;30597;49.628;10.850;2023-01-05T00:51:20;2.07;;;1.80;;
44862;SDS011;30597;49.628;10.850;2023-01-05T00:53:46;2.60;;;2.40;;
44862;SDS011;30597;49.628;10.850;2023-01-05T00:56:12;3.00;;;2.70;;
44862;SDS011;30597;49.628;10.850;2023-01-05T00:58:38;3.10;;;2.77;;
44862;SDS011;30597;49.628;10.850;2023-01-05T01:01:10;2.73;;;2.53;;
44862;SDS011;30597;49.628;10.850;2023-01-05T01:03:36;2.43;;;2.23;;
44862;SDS011;30597;49.628;10.850;2023-01-05T01:06:02;2.50;;;2.30;;
44862;SDS011;30597;49.628;10.850;2023-01-05T01:08:28;4.37;;;2.47;;
44862;SDS011;30597;49.628;10.850;2023-01-05T01:10:53;3.10;;;2.30;;
44862;SDS011;30597;49.628;10.850;2023-01-05T01:13:19;2.67;;;2.47;;
44862;SDS011;30597;49.628;10.850;2023-01-05T01:15:44;2.70;;;1.83;;
44862;SDS011;30597;49.628;10.850;2023-01-05T01:18:10;2.20;;;1.80;;
44862;SDS011;30597;49.628;10.850;2023-01-05T01:20:36;2.40;;;2.07;;
44862;SDS011;30597;49.628;10.850;2023-01-05T01:23:02;2.30;;;2.10;;
44862;SDS011;30597;49.628;10.850;2023-01-05T01:25:28;2.27;;;2.03;;
44862;SDS011;30597;49.628;10.850;2023-01-05T01:27:54;2.80;;;2.23;;
44862;SDS011;30597;49.628;10.850;2023-01-05T01:30:20;2.43;;;2.00;;
44862;SDS011;30597;49.628;10.850;2023-01-05T01:32:45;2.20;;;1.80;;
44862;SDS011;30597;49.628;10.850;2023-01-05T01:35:11;2.23;;;2.03;;
44862;SDS011;30597;49.628;10.850;2023-01-05T01:37:36;2.33;;;2.10;;
44862;SDS011;30597;49.628;10.850;2023-01-05T01:40:02;2.63;;;1.60;;
44862;SDS011;30597;49.628;10.850;2023-01-05T01:42:28;2.23;;;2.00;;
44862;SDS011;30597;49.628;10.850;2023-01-05T01:45:00;2.13;;;1.93;;
44862;SDS011;30597;49.628;10.850;2023-01-05T01:47:50;4.10;;;2.10;;
44862;SDS011;30597;49.628;10.850;2023-01-05T01:50:30;2.30;;;1.90;;
44862;SDS011;30597;49.628;10.850;2023-01-05T01:53:09;2.57;;;2.10;;
44862;SDS011;30597;49.628;10.850;2023-01-05T01:55:39;2.10;;;1.90;;
44862;SDS011;30597;49.628;10.850;2023-01-05T01:58:07;1.90;;;1.80;;
44862;SDS011;30597;49.628;10.850;2023-01-05T02:00:36;1.90;;;1.80;;
44862;SDS011;30597;49.628;10.850;2023-01-05T02:03:03;2.63;;;2.13;;
44862;SDS011;30597;49.628;10.850;2023-01-05T02:05:30;2.00;;;1.80;;
44862;SDS011;30597;49.628;10.850;2023-01-05T02:07:58;3.07;;;1.93;;
44862;SDS011;30597;49.628;10.850;2023-01-05T02:10:32;1.80;;;1.70;;
44862;SDS011;30597;49.628;10.850;2023-01-05T02:13:04;2.43;;;2.00;;
44862;SDS011;30597;49.628;10.850;2023-01-05T02:21:13;1.87;;;1.70;;
44862;SDS011;30597;49.628;10.850;2023-01-05T02:23:58;2.00;;;1.80;;
44862;SDS011;30597;49.628;10.850;2023-01-05T02:30:19;1.73;;;1.60;;
44862;SDS011;30597;49.628;10.850;2023-01-05T02:32:42;1.70;;;1.57;;
44862;SDS011;30597;49.628;10.850;2023-01-05T02:38:21;2.07;;;1.53;;
44862;SDS011;30597;49.628;10.850;2023-01-05T02:40:56;1.83;;;1.57;;
44862;SDS011;30597;49.628;10.850;2023-01-05T02:43:26;2.10;;;1.90;;
44862;SDS011;30597;49.628;10.850;2023-01-05T02:45:52;1.50;;;1.27;;
44862;SDS011;30597;49.628;10.850;2023-01-05T02:48:19;2.07;;;1.87;;
44862;SDS011;30597;49.628;10.850;2023-01-05T02:50:49;2.20;;;1.60;;
44862;SDS011;30597;49.628;10.850;2023-01-05T02:53:23;1.90;;;1.37;;
44862;SDS011;30597;49.628;10.850;2023-01-05T02:55:54;1.50;;;1.30;;
44862;SDS011;30597;49.628;10.850;2023-01-05T02:58:30;1.67;;;1.30;;
44862;SDS011;30597;49.628;10.850;2023-01-05T03:01:00;1.67;;;1.27;;
44862;SDS011;30597;49.628;10.850;2023-01-05T03:03:31;2.20;;;1.43;;
44862;SDS011;30597;49.628;10.850;2023-01-05T03:06:05;2.00;;;1.30;;
44862;SDS011;30597;49.628;10.850;2023-01-05T03:08:36;1.73;;;1.23;;
44862;SDS011;30597;49.628;10.850;2023-01-05T03:11:05;1.73;;;1.40;;
44862;SDS011;30597;49.628;10.850;2023-01-05T03:13:56;2.00;;;1.30;;
44862;SDS011;30597;49.628;10.850;2023-01-05T03:16:42;1.30;;;1.07;;
44862;SDS011;30597;49.628;10.850;2023-01-05T03:19:12;1.23;;;1.13;;
44862;SDS011;30597;49.628;10.850;2023-01-05T03:22:00;1.37;;;1.20;;
44862;SDS011;30597;49.628;10.850;2023-01-05T03:24:46;1.20;;;1.10;;
44862;SDS011;30597;49.628;10.850;2023-01-05T03:27:31;2.70;;;1.30;;
44862;SDS011;30597;49.628;10.850;2023-01-05T03:30:15;1.47;;;1.30;;
44862;SDS011;30597;49.628;10.850;2023-01-05T03:33:07;1.97;;;1.40;;
44862;SDS011;30597;49.628;10.850;2023-01-05T03:35:58;1.40;;;1.30;;
44862;SDS011;30597;49.628;10.850;2023-01-05T03:38:32;1.40;;;1.20;;
44862;SDS011;30597;49.628;10.850;2023-01-05T03:41:03;1.30;;;1.10;;
44862;SDS011;30597;49.628;10.850;2023-01-05T03:43:37;1.10;;;1.00;;
44862;SDS011;30597;49.628;10.850;2023-01-05T03:46:11;1.47;;;1.20;;
44862;SDS011;30597;49.628;10.850;2023-01-05T03:48:39;1.50;;;1.30;;
44862;SDS011;30597;49.628;10.850;2023-01-05T03:51:05;1.03;;;0.93;;
44862;SDS011;30597;49.628;10.850;2023-01-05T03:53:31;1.40;;;1.30;;
44862;SDS011;30597;49.628;10.850;2023-01-05T03:55:57;1.93;;;1.13;;
44862;SDS011;30597;49.628;10.850;2023-01-05T03:58:22;1.27;;;1.00;;
44862;SDS011;30597;49.628;10.850;2023-01-05T04:00:48;1.50;;;1.10;;
44862;SDS011;30597;49.628;10.850;2023-01-05T04:03:14;3.20;;;1.10;;
44862;SDS011;30597;49.628;10.850;2023-01-05T04:05:39;1.30;;;1.20;;
44862;SDS011;30597;49.628;10.850;2023-01-05T04:08:05;1.20;;;1.00;;
44862;SDS011;30597;49.628;10.850;2023-01-05T04:10:31;0.77;;;0.63;;
44862;SDS011;30597;49.628;10.850;2023-01-05T04:12:56;1.30;;;0.80;;
44862;SDS011;30597;49.628;10.850;2023-01-05T04:15:22;1.43;;;1.33;;
44862;SDS011;30597;49.628;10.850;2023-01-05T04:17:47;1.13;;;0.93;;
44862;SDS011;30597;49.628;10.850;2023-01-05T04:20:13;1.40;;;0.90;;
44862;SDS011;30597;49.628;10.850;2023-01-05T04:22:38;1.30;;;1.10;;
44862;SDS011;30597;49.628;10.850;2023-01-05T04:25:04;1.30;;;0.90;;
44862;SDS011;30597;49.628;10.850;2023-01-05T04:27:30;0.90;;;0.77;;
44862;SDS011;30597;49.628;10.850;2023-01-05T04:29:55;1.10;;;1.00;;
44862;SDS011;30597;49.628;10.850;2023-01-05T04:32:21;0.80;;;0.70;;
44862;SDS011;30597;49.628;10.850;2023-01-05T04:34:46;0.60;;;0.60;;
44862;SDS011;30597;49.628;10.850;2023-01-05T04:37:12;1.10;;;0.90;;
44862;SDS011;30597;49.628;10.850;2023-01-05T04:39:37;1.00;;;0.90;;
44862;SDS011;30597;49.628;10.850;2023-01-05T04:42:03;1.50;;;0.70;;
44862;SDS011;30597;49.628;10.850;2023-01-05T04:44:28;3.17;;;0.60;;
44862;SDS011;30597;49.628;10.850;2023-01-05T04:46:54;1.50;;;0.80;;
44862;SDS011;30597;49.628;10.850;2023-01-05T04:49:19;1.10;;;1.00;;
44862;SDS011;30597;49.628;10.850;2023-01-05T04:51:45;0.93;;;0.73;;
44862;SDS011;30597;49.628;10.850;2023-01-05T04:54:10;0.93;;;0.83;;
44862;SDS011;30597;49.628;10.850;2023-01-05T04:56:36;1.00;;;0.73;;
44862;SDS011;30597;49.628;10.850;2023-01-05T04:59:01;0.80;;;0.80;;
44862;SDS011;30597;49.628;10.850;2023-01-05T05:01:27;0.83;;;0.67;;
44862;SDS011;30597;49.628;10.850;2023-01-05T05:03:52;0.73;;;0.70;;
44862;SDS011;30597;49.628;10.850;2023-01-05T05:06:18;1.17;;;0.87;;
44862;SDS011;30597;49.628;10.850;2023-01-05T05:08:44;1.07;;;0.90;;
44862;SDS011;30597;49.628;10.850;2023-01-05T05:11:09;0.67;;;0.60;;
44862;SDS011;30597;49.628;10.850;2023-01-05T05:13:35;1.47;;;0.90;;
44862;SDS011;30597;49.628;10.850;2023-01-05T05:16:00;0.80;;;0.70;;
44862;SDS011;30597;49.628;10.850;2023-01-05T05:18:26;0.90;;;0.80;;
44862;SDS011;30597;49.628;10.850;2023-01-05T05:20:52;0.90;;;0.70;;
44862;SDS011;30597;49.628;10.850;2023-01-05T05:23:18;1.20;;;1.10;;
44862;SDS011;30597;49.628;10.850;2023-01-05T05:25:43;0.87;;;0.70;;
44862;SDS011;30597;49.628;10.850;2023-01-05T05:28:09;0.80;;;0.60;;
44862;SDS011;30597;49.628;10.850;2023-01-05T05:30:38;0.87;;;0.87;;
44862;SDS011;30597;49.628;10.850;2023-01-05T05:33:03;0.80;;;0.70;;
44862;SDS011;30597;49.628;10.850;2023-01-05T05:35:29;1.03;;;0.80;;
44862;SDS011;30597;49.628;10.850;2023-01-05T05:37:54;0.70;;;0.60;;
44862;SDS011;30597;49.628;10.850;2023-01-05T05:40:20;0.90;;;0.80;;
44862;SDS011;30597;49.628;10.850;2023-01-05T05:42:45;0.60;;;0.50;;
44862;SDS011;30597;49.628;10.850;2023-01-05T05:45:11;1.20;;;0.80;;
44862;SDS011;30597;49.628;10.850;2023-01-05T05:47:36;1.00;;;0.77;;
44862;SDS011;30597;49.628;10.850;2023-01-05T05:50:02;0.77;;;0.70;;
44862;SDS011;30597;49.628;10.850;2023-01-05T05:52:28;0.87;;;0.70;;
44862;SDS011;30597;49.628;10.850;2023-01-05T05:54:54;1.00;;;0.70;;
44862;SDS011;30597;49.628;10.850;2023-01-05T05:57:19;0.80;;;0.70;;
44862;SDS011;30597;49.628;10.850;2023-01-05T05:59:44;0.90;;;0.63;;
44862;SDS011;30597;49.628;10.850;2023-01-05T06:02:10;0.60;;;0.60;;
44862;SDS011;30597;49.628;10.850;2023-01-05T06:04:36;1.50;;;1.10;;
44862;SDS011;30597;49.628;10.850;2023-01-05T06:07:01;1.07;;;0.93;;
44862;SDS011;30597;49.628;10.850;2023-01-05T06:09:27;0.80;;;0.70;;
44862;SDS011;30597;49.628;10.850;2023-01-05T06:11:52;1.27;;;0.90;;
44862;SDS011;30597;49.628;10.850;2023-01-05T06:14:18;1.00;;;0.80;;
44862;SDS011;30597;49.628;10.850;2023-01-05T06:16:43;1.10;;;0.90;;
44862;SDS011;30597;49.628;10.850;2023-01-05T06:19:09;1.13;;;0.90;;
44862;SDS011;30597;49.628;10.850;2023-01-05T06:21:35;1.20;;;1.10;;
44862;SDS011;30597;49.628;10.850;2023-01-05T06:24:01;1.23;;;0.80;;
44862;SDS011;30597;49.628;10.850;2023-01-05T06:26:27;0.80;;;0.80;;
44862;SDS011;30597;49.628;10.850;2023-01-05T06:28:52;0.80;;;0.80;;
44862;SDS011;30597;49.628;10.850;2023-01-05T06:31:18;2.10;;;0.93;;
44862;SDS011;30597;49.628;10.850;2023-01-05T06:33:43;1.13;;;0.80;;
44862;SDS011;30597;49.628;10.850;2023-01-05T06:36:09;1.00;;;0.90;;
44862;SDS011;30597;49.628;10.850;2023-01-05T06:38:34;0.80;;;0.70;;
44862;SDS011;30597;49.628;10.850;2023-01-05T06:41:00;2.30;;;1.00;;
44862;SDS011;30597;49.628;10.850;2023-01-05T06:43:25;0.80;;;0.70;;
44862;SDS011;30597;49.628;10.850;2023-01-05T06:45:51;1.20;;;1.10;;
44862;SDS011;30597;49.628;10.850;2023-01-05T06:48:17;0.83;;;0.70;;
44862;SDS011;30597;49.628;10.850;2023-01-05T06:50:42;1.07;;;0.80;;
44862;SDS011;30597;49.628;10.850;2023-01-05T06:53:08;1.20;;;0.90;;
44862;SDS011;30597;49.628;10.850;2023-01-05T06:55:34;1.00;;;0.90;;
44862;SDS011;30597;49.628;10.850;2023-01-05T06:57:59;0.90;;;0.80;;
44862;SDS011;30597;49.628;10.850;2023-01-05T07:00:25;1.63;;;0.80;;
44862;SDS011;30597;49.628;10.850;2023-01-05T07:02:50;0.97;;;0.87;;
44862;SDS011;30597;49.628;10.850;2023-01-05T07:05:16;1.07;;;0.87;;
44862;SDS011;30597;49.628;10.850;2023-01-05T07:07:41;2.37;;;0.83;;
44862;SDS011;30597;49.628;10.850;2023-01-05T07:10:07;1.50;;;1.10;;
44862;SDS011;30597;49.628;10.850;2023-01-05T07:12:33;2.30;;;0.90;;
44862;SDS011;30597;49.628;10.850;2023-01-05T07:14:58;1.17;;;1.07;;
44862;SDS011;30597;49.628;10.850;2023-01-05T07:17:24;1.10;;;1.00;;
44862;SDS011;30597;49.628;10.850;2023-01-05T07:19:50;5.93;;;2.10;;
44862;SDS011;30597;49.628;10.850;2023-01-05T07:22:15;4.77;;;2.70;;
44862;SDS011;30597;49.628;10.850;2023-01-05T07:24:41;3.37;;;3.07;;
44862;SDS011;30597;49.628;10.850;2023-01-05T07:27:06;4.07;;;3.67;;
44862;SDS011;30597;49.628;10.850;2023-01-05T07:29:32;7.40;;;3.83;;
44862;SDS011;30597;49.628;10.850;2023-01-05T07:31:57;3.90;;;3.40;;
44862;SDS011;30597;49.628;10.850;2023-01-05T07:34:23;4.63;;;3.60;;
44862;SDS011;30597;49.628;10.850;2023-01-05T07:36:49;4.70;;;3.70;;
44862;SDS011;30597;49.628;10.850;2023-01-05T07:39:14;6.80;;;3.60;;
44862;SDS011;30597;49.628;10.850;2023-01-05T07:41:40;4.80;;;4.13;;
44862;SDS011;30597;49.628;10.850;2023-01-05T07:44:06;4.97;;;4.20;;
44862;SDS011;30597;49.628;10.850;2023-01-05T07:46:32;5.70;;;4.30;;
44862;SDS011;30597;49.628;10.850;2023-01-05T07:48:57;4.20;;;3.80;;
44862;SDS011;30597;49.628;10.850;2023-01-05T07:51:23;6.97;;;4.47;;
44862;SDS011;30597;49.628;10.850;2023-01-05T07:53:49;4.30;;;3.80;;
44862;SDS011;30597;49.628;10.850;2023-01-05T07:56:15;4.70;;;3.47;;
44862;SDS011;30597;49.628;10.850;2023-01-05T07:58:40;5.77;;;3.80;;
44862;SDS011;30597;49.628;10.850;2023-01-05T08:01:07;4.43;;;3.87;;
44862;SDS011;30597;49.628;10.850;2023-01-05T08:03:34;4.60;;;3.87;;
44862;SDS011;30597;49.628;10.850;2023-01-05T08:06:07;5.67;;;3.70;;
44862;SDS011;30597;49.628;10.850;2023-01-05T08:08:37;4.20;;;3.43;;
44862;SDS011;30597;49.628;10.850;2023-01-05T08:11:07;5.70;;;3.60;;
44862;SDS011;30597;49.628;10.850;2023-01-05T08:13:33;4.70;;;3.80;;
44862;SDS011;30597;49.628;10.850;2023-01-05T08:16:18;4.13;;;3.63;;
44862;SDS011;30597;49.628;10.850;2023-01-05T08:18:43;4.80;;;3.50;;
44862;SDS011;30597;49.628;10.850;2023-01-05T08:21:09;3.77;;;3.23;;
44862;SDS011;30597;49.628;10.850;2023-01-05T08:23:35;4.30;;;3.90;;
44862;SDS011;30597;49.628;10.850;2023-01-05T08:26:03;4.03;;;3.57;;
44862;SDS011;30597;49.628;10.850;2023-01-05T08:28:30;3.77;;;3.43;;
44862;SDS011;30597;49.628;10.850;2023-01-05T08:30:59;4.00;;;3.60;;
44862;SDS011;30597;49.628;10.850;2023-01-05T08:33:29;4.37;;;3.13;;
44862;SDS011;30597;49.628;10.850;2023-01-05T08:35:55;3.87;;;3.00;;
44862;SDS011;30597;49.628;10.850;2023-01-05T08:38:21;3.33;;;3.03;;
44862;SDS011;30597;49.628;10.850;2023-01-05T08:40:46;4.00;;;3.67;;
44862;SDS011;30597;49.628;10.850;2023-01-05T08:43:12;4.43;;;3.97;;
44862;SDS011;30597;49.628;10.850;2023-01-05T08:45:37;5.77;;;3.70;;
44862;SDS011;30597;49.628;10.850;2023-01-05T08:48:03;5.63;;;3.67;;
44862;SDS011;30597;49.628;10.850;2023-01-05T08:50:29;4.57;;;3.27;;
44862;SDS011;30597;49.628;10.850;2023-01-05T08:52:55;4.17;;;3.53;;
44862;SDS011;30597;49.628;10.850;2023-01-05T08:55:21;4.00;;;3.30;;
44862;SDS011;30597;49.628;10.850;2023-01-05T08:57:47;4.30;;;3.90;;
44862;SDS011;30597;49.628;10.850;2023-01-05T09:00:12;5.60;;;3.90;;
44862;SDS011;30597;49.628;10.850;2023-01-05T09:02:41;6.07;;;3.60;;
44862;SDS011;30597;49.628;10.850;2023-01-05T09:05:07;5.20;;;3.83;;
44862;SDS011;30597;49.628;10.850;2023-01-05T09:07:33;3.57;;;2.90;;
44862;SDS011;30597;49.628;10.850;2023-01-05T09:09:58;5.10;;;3.47;;
44862;SDS011;30597;49.628;10.850;2023-01-05T09:12:24;4.00;;;3.57;;
44862;SDS011;30597;49.628;10.850;2023-01-05T09:14:49;4.20;;;3.57;;
44862;SDS011;30597;49.628;10.850;2023-01-05T09:17:15;3.30;;;3.00;;
44862;SDS011;30597;49.628;10.850;2023-01-05T09:19:40;4.70;;;3.90;;
44862;SDS011;30597;49.628;10.850;2023-01-05T09:22:06;3.20;;;2.90;;
44862;SDS011;30597;49.628;10.850;2023-01-05T09:24:31;3.73;;;3.43;;
44862;SDS011;30597;49.628;10.850;2023-01-05T09:26:57;5.00;;;3.40;;
44862;SDS011;30597;49.628;10.850;2023-01-05T09:29:22;4.07;;;2.70;;
44862;SDS011;30597;49.628;10.850;2023-01-05T09:31:48;4.93;;;2.80;;
44862;SDS011;30597;49.628;10.850;2023-01-05T09:34:14;3.80;;;3.40;;
44862;SDS011;30597;49.628;10.850;2023-01-05T09:36:40;3.33;;;3.00;;
44862;SDS011;30597;49.628;10.850;2023-01-05T09:39:05;5.57;;;3.93;;
44862;SDS011;30597;49.628;10.850;2023-01-05T09:44:01;11.53;;;5.37;;
44862;SDS011;30597;49.628;10.850;2023-01-05T09:46:50;6.97;;;5.20;;
44862;SDS011;30597;49.628;10.850;2023-01-05T09:49:19;7.70;;;4.67;;
44862;SDS011;30597;49.628;10.850;2023-01-05T09:51:46;5.90;;;4.30;;
44862;SDS011;30597;49.628;10.850;2023-01-05T09:54:17;6.23;;;4.00;;
44862;SDS011;30597;49.628;10.850;2023-01-05T09:56:44;7.20;;;4.27;;
44862;SDS011;30597;49.628;10.850;2023-01-05T10:01:42;6.27;;;4.37;;
44862;SDS011;30597;49.628;10.850;2023-01-05T10:04:14;5.50;;;3.80;;
44862;SDS011;30597;49.628;10.850;2023-01-05T10:06:46;5.33;;;3.70;;
44862;SDS011;30597;49.628;10.850;2023-01-05T10:09:20;8.57;;;4.40;;
44862;SDS011;30597;49.628;10.850;2023-01-05T10:11:52;6.27;;;3.90;;
44862;SDS011;30597;49.628;10.850;2023-01-05T10:14:43;4.57;;;3.73;;
44862;SDS011;30597;49.628;10.850;2023-01-05T10:17:31;5.10;;;3.70;;
44862;SDS011;30597;49.628;10.850;2023-01-05T10:19:59;5.90;;;3.57;;
44862;SDS011;30597;49.628;10.850;2023-01-05T10:28:01;5.27;;;3.80;;
44862;SDS011;30597;49.628;10.850;2023-01-05T10:30:47;5.37;;;3.50;;
44862;SDS011;30597;49.628;10.850;2023-01-05T10:33:15;5.43;;;3.27;;
44862;SDS011;30597;49.628;10.850;2023-01-05T10:41:37;5.27;;;3.20;;
44862;SDS011;30597;49.628;10.850;2023-01-05T10:47:00;5.93;;;3.07;;
44862;SDS011;30597;49.628;10.850;2023-01-05T10:49:30;5.67;;;3.27;;
44862;SDS011;30597;49.628;10.850;2023-01-05T10:51:57;4.07;;;2.90;;
44862;SDS011;30597;49.628;10.850;2023-01-05T10:54:47;4.20;;;2.90;;
44862;SDS011;30597;49.628;10.850;2023-01-05T11:00:00;4.93;;;3.80;;
44862;SDS011;30597;49.628;10.850;2023-01-05T11:02:30;6.10;;;3.80;;
44862;SDS011;30597;49.628;10.850;2023-01-05T11:05:06;5.70;;;3.60;;
44862;SDS011;30597;49.628;10.850;2023-01-05T11:07:47;6.30;;;3.30;;
44862;SDS011;30597;49.628;10.850;2023-01-05T11:10:27;4.00;;;3.47;;
44862;SDS011;30597;49.628;10.850;2023-01-05T11:15:41;4.23;;;3.83;;
44862;SDS011;30597;49.628;10.850;2023-01-05T11:18:18;5.07;;;3.50;;
44862;SDS011;30597;49.628;10.850;2023-01-05T11:21:04;4.17;;;3.10;;
44862;SDS011;30597;49.628;10.850;2023-01-05T11:23:35;5.37;;;3.60;;
44862;SDS011;30597;49.628;10.850;2023-01-05T11:28:43;6.63;;;3.97;;
44862;SDS011;30597;49.628;10.850;2023-01-05T11:31:21;7.73;;;3.53;;
44862;SDS011;30597;49.628;10.850;2023-01-05T11:33:46;4.80;;;3.00;;
44862;SDS011;30597;49.628;10.850;2023-01-05T11:36:20;6.80;;;3.43;;
44862;SDS011;30597;49.628;10.850;2023-01-05T11:38:49;5.37;;;3.60;;
44862;SDS011;30597;49.628;10.850;2023-01-05T11:41:18;4.83;;;3.70;;
44862;SDS011;30597;49.628;10.850;2023-01-05T11:43:46;4.03;;;3.50;;
44862;SDS011;30597;49.628;10.850;2023-01-05T11:46:13;10.00;;;3.97;;
44862;SDS011;30597;49.628;10.850;2023-01-05T11:48:39;3.67;;;3.33;;
44862;SDS011;30597;49.628;10.850;2023-01-05T11:51:33;4.17;;;3.57;;
44862;SDS011;30597;49.628;10.850;2023-01-05T11:54:01;6.33;;;3.23;;
44862;SDS011;30597;49.628;10.850;2023-01-05T11:56:26;3.90;;;2.90;;
44862;SDS011;30597;49.628;10.850;2023-01-05T11:58:52;6.33;;;3.57;;
44862;SDS011;30597;49.628;10.850;2023-01-05T12:04:01;3.37;;;3.00;;
44862;SDS011;30597;49.628;10.850;2023-01-05T12:21:21;4.30;;;3.03;;
44862;SDS011;30597;49.628;10.850;2023-01-05T12:23:57;8.97;;;3.07;;
44862;SDS011;30597;49.628;10.850;2023-01-05T12:26:54;5.00;;;3.20;;
44862;SDS011;30597;49.628;10.850;2023-01-05T12:30:03;3.97;;;2.83;;
44862;SDS011;30597;49.628;10.850;2023-01-05T12:35:56;6.17;;;3.17;;
44862;SDS011;30597;49.628;10.850;2023-01-05T12:38:46;4.67;;;2.60;;
44862;SDS011;30597;49.628;10.850;2023-01-05T12:50:08;3.30;;;2.67;;
44862;SDS011;30597;49.628;10.850;2023-01-05T12:52:44;2.53;;;2.20;;
44862;SDS011;30597;49.628;10.850;2023-01-05T12:57:49;3.20;;;2.30;;
44862;SDS011;30597;49.628;10.850;2023-01-05T13:00:21;5.20;;;2.77;;
44862;SDS011;30597;49.628;10.850;2023-01-05T13:02:50;3.40;;;2.13;;
44862;SDS011;30597;49.628;10.850;2023-01-05T13:08:00;2.30;;;2.03;;
44862;SDS011;30597;49.628;10.850;2023-01-05T13:10:37;4.87;;;2.30;;
44862;SDS011;30597;49.628;10.850;2023-01-05T13:13:15;3.50;;;2.00;;
44862;SDS011;30597;49.628;10.850;2023-01-05T13:15:53;2.43;;;2.00;;
44862;SDS011;30597;49.628;10.850;2023-01-05T13:18:27;2.67;;;2.23;;
44862;SDS011;30597;49.628;10.850;2023-01-05T13:20:55;3.03;;;2.43;;
44862;SDS011;30597;49.628;10.850;2023-01-05T13:23:27;3.17;;;2.57;;
44862;SDS011;30597;49.628;10.850;2023-01-05T13:26:00;2.40;;;1.93;;
44862;SDS011;30597;49.628;10.850;2023-01-05T13:28:29;3.50;;;2.40;;
44862;SDS011;30597;49.628;10.850;2023-01-05T13:33:43;3.80;;;2.40;;
44862;SDS011;30597;49.628;10.850;2023-01-05T13:45:17;3.63;;;1.93;;
44862;SDS011;30597;49.628;10.850;2023-01-05T13:47:56;2.40;;;2.20;;
44862;SDS011;30597;49.628;10.850;2023-01-05T13:50:35;2.27;;;2.03;;
44862;SDS011;30597;49.628;10.850;2023-01-05T13:53:24;2.37;;;2.17;;
44862;SDS011;30597;49.628;10.850;2023-01-05T13:55:52;2.37;;;1.80;;
44862;SDS011;30597;49.628;10.850;2023-01-05T13:58:42;3.80;;;2.33;;
44862;SDS011;30597;49.628;10.850;2023-01-05T14:01:12;2.10;;;1.90;;
44862;SDS011;30597;49.628;10.850;2023-01-05T14:03:46;2.97;;;2.00;;
44862;SDS011;30597;49.628;10.850;2023-01-05T14:06:22;2.10;;;1.90;;
44862;SDS011;30597;49.628;10.850;2023-01-05T14:08:52;4.77;;;2.07;;
44862;SDS011;30597;49.628;10.850;2023-01-05T14:11:22;4.80;;;2.47;;
44862;SDS011;30597;49.628;10.850;2023-01-05T14:13:53;2.23;;;2.00;;
44862;SDS011;30597;49.628;10.850;2023-01-05T14:24:27;3.93;;;2.10;;
44862;SDS011;30597;49.628;10.850;2023-01-05T14:27:10;2.30;;;2.10;;
44862;SDS011;30597;49.628;10.850;2023-01-05T14:32:10;2.50;;;2.00;;
44862;SDS011;30597;49.628;10.850;2023-01-05T14:37:54;3.37;;;2.30;;
44862;SDS011;30597;49.628;10.850;2023-01-05T14:40:43;2.97;;;2.07;;
44862;SDS011;30597;49.628;10.850;2023-01-05T14:45:58;3.53;;;2.50;;
44862;SDS011;30597;49.628;10.850;2023-01-05T14:48:29;3.10;;;1.90;;
44862;SDS011;30597;49.628;10.850;2023-01-05T14:51:09;2.10;;;1.80;;
44862;SDS011;30597;49.628;10.850;2023-01-05T14:54:00;3.67;;;2.57;;
44862;SDS011;30597;49.628;10.850;2023-01-05T14:56:29;2.33;;;1.97;;
44862;SDS011;30597;49.628;10.850;2023-01-05T15:01:59;2.20;;;1.80;;
44862;SDS011;30597;49.628;10.850;2023-01-05T15:04:37;2.37;;;2.17;;
44862;SDS011;30597;49.628;10.850;2023-01-05T15:07:51;2.13;;;1.93;;
44862;SDS011;30597;49.628;10.850;2023-01-05T15:15:45;2.90;;;2.13;;
44862;SDS011;30597;49.628;10.850;2023-01-05T15:21:26;2.93;;;1.97;;
44862;SDS011;30597;49.628;10.850;2023-01-05T15:35:56;1.90;;;1.80;;
44862;SDS011;30597;49.628;10.850;2023-01-05T15:38:26;2.87;;;2.17;;
44862;SDS011;30597;49.628;10.850;2023-01-05T15:40:58;3.33;;;2.33;;
44862;SDS011;30597;49.628;10.850;2023-01-05T15:43:32;2.50;;;2.13;;
44862;SDS011;30597;49.628;10.850;2023-01-05T15:46:00;2.87;;;1.83;;
44862;SDS011;30597;49.628;10.850;2023-01-05T15:48:31;3.30;;;2.23;;
44862;SDS011;30597;49.628;10.850;2023-01-05T15:51:03;1.93;;;1.70;;
44862;SDS011;30597;49.628;10.850;2023-01-05T15:55:57;2.10;;;1.90;;
44862;SDS011;30597;49.628;10.850;2023-01-05T15:58:24;2.30;;;1.70;;
44862;SDS011;30597;49.628;10.850;2023-01-05T16:00:58;1.63;;;1.40;;
44862;SDS011;30597;49.628;10.850;2023-01-05T16:03:30;2.03;;;1.83;;
44862;SDS011;30597;49.628;10.850;2023-01-05T16:05:59;2.23;;;1.73;;
44862;SDS011;30597;49.628;10.850;2023-01-05T16:08:27;2.77;;;1.80;;
44862;SDS011;30597;49.628;10.850;2023-01-05T16:10:57;2.53;;;2.33;;
44862;SDS011;30597;49.628;10.850;2023-01-05T16:16:03;3.00;;;1.60;;
44862;SDS011;30597;49.628;10.850;2023-01-05T16:18:36;1.97;;;1.70;;
44862;SDS011;30597;49.628;10.850;2023-01-05T16:21:27;4.60;;;1.63;;
44862;SDS011;30597;49.628;10.850;2023-01-05T16:24:06;2.23;;;1.60;;
44862;SDS011;30597;49.628;10.850;2023-01-05T16:26:41;2.23;;;1.90;;
44862;SDS011;30597;49.628;10.850;2023-01-05T16:29:30;3.27;;;2.03;;
44862;SDS011;30597;49.628;10.850;2023-01-05T16:31:57;2.30;;;1.77;;
44862;SDS011;30597;49.628;10.850;2023-01-05T16:34:24;2.37;;;1.60;;
44862;SDS011;30597;49.628;10.850;2023-01-05T16:36:57;3.17;;;1.80;;
44862;SDS011;30597;49.628;10.850;2023-01-05T16:39:23;3.40;;;2.10;;
44862;SDS011;30597;49.628;10.850;2023-01-05T16:42:00;2.37;;;2.03;;
44862;SDS011;30597;49.628;10.850;2023-01-05T16:44:53;2.40;;;1.80;;
44862;SDS011;30597;49.628;10.850;2023-01-05T16:47:33;2.20;;;2.00;;
44862;SDS011;30597;49.628;10.850;2023-01-05T16:50:08;1.60;;;1.50;;
44862;SDS011;30597;49.628;10.850;2023-01-05T16:52:50;2.77;;;2.00;;
44862;SDS011;30597;49.628;10.850;2023-01-05T16:55:27;2.73;;;2.43;;
44862;SDS011;30597;49.628;10.850;2023-01-05T16:57:54;2.47;;;2.27;;
44862;SDS011;30597;49.628;10.850;2023-01-05T17:02:53;2.50;;;2.10;;
44862;SDS011;30597;49.628;10.850;2023-01-05T17:05:37;3.60;;;2.30;;